createdAt,value
2023-04-11T00:01:49.656Z,5.68
2023-04-11T00:04:55.637Z,6.35
2023-04-11T00:08:00.922Z,6.00
2023-04-11T00:11:06.897Z,6.68
2023-04-11T00:14:12.819Z,6.25
2023-04-11T00:17:18.420Z,6.32
2023-04-11T00:20:23.892Z,6.50
2023-04-11T00:23:29.723Z,7.03
2023-04-11T00:26:35.453Z,7.90
2023-04-11T00:29:41.078Z,6.72
2023-04-11T00:32:47.826Z,6.85
2023-04-11T00:35:53.252Z,6.63
2023-04-11T00:38:58.811Z,7.70
2023-04-11T00:42:06.986Z,7.30
2023-04-11T00:45:12.568Z,7.18
2023-04-11T00:48:18.039Z,7.75
2023-04-11T00:51:24.315Z,7.22
2023-04-11T00:54:30.697Z,6.63
2023-04-11T00:57:38.050Z,7.03
2023-04-11T01:00:43.562Z,7.55
2023-04-11T01:03:49.118Z,7.00
2023-04-11T01:06:59.631Z,7.50
2023-04-11T01:10:06.159Z,7.43
2023-04-11T01:13:13.233Z,7.60
2023-04-11T01:16:21.963Z,7.10
2023-04-11T01:19:27.954Z,7.80
2023-04-11T01:22:34.156Z,7.18
2023-04-11T01:25:42.163Z,7.30
2023-04-11T01:28:49.856Z,7.72
2023-04-11T01:31:55.836Z,8.50
2023-04-11T01:35:04.491Z,8.38
2023-04-11T01:38:10.157Z,6.88
2023-04-11T01:41:18.205Z,7.63
2023-04-11T01:44:25.513Z,8.23
2023-04-11T01:47:30.610Z,7.47
2023-04-11T01:50:36.440Z,8.38
2023-04-11T01:53:41.831Z,8.25
2023-04-11T01:56:47.510Z,7.43
2023-04-11T01:59:53.173Z,7.88
2023-04-11T02:02:59.077Z,7.57
2023-04-11T02:06:05.335Z,8.63
2023-04-11T02:09:11.129Z,7.85
2023-04-11T02:12:16.442Z,8.32
2023-04-11T02:15:21.598Z,8.02
2023-04-11T02:18:27.455Z,7.80
2023-04-11T02:21:34.200Z,7.85
2023-04-11T02:24:39.629Z,8.10
2023-04-11T02:27:45.029Z,8.35
2023-04-11T02:30:51.244Z,8.85
2023-04-11T02:33:56.775Z,9.45
2023-04-11T02:37:01.929Z,8.57
2023-04-11T02:40:08.430Z,8.48
2023-04-11T02:43:16.996Z,8.52
2023-04-11T02:46:22.773Z,8.15
2023-04-11T02:49:28.584Z,8.63
2023-04-11T02:52:34.936Z,9.25
2023-04-11T02:55:42.092Z,9.48
2023-04-11T02:58:47.721Z,8.57
2023-04-11T03:02:01.352Z,8.43
2023-04-11T03:05:09.426Z,7.53
2023-04-11T03:08:17.961Z,7.47
2023-04-11T03:11:28.970Z,9.87
2023-04-11T03:14:34.282Z,9.02
2023-04-11T03:17:40.130Z,9.70
2023-04-11T03:20:47.498Z,9.10
2023-04-11T03:23:54.872Z,8.90
2023-04-11T03:27:01.792Z,9.25
2023-04-11T03:30:08.676Z,9.57
2023-04-11T03:33:20.369Z,9.02
2023-04-11T03:36:28.790Z,9.80
2023-04-11T03:39:40.073Z,9.25
2023-04-11T03:42:49.984Z,9.25
2023-04-11T03:45:59.851Z,8.60
2023-04-11T03:49:21.944Z,9.32
2023-04-11T03:52:32.292Z,9.05
2023-04-11T03:55:37.486Z,10.27
2023-04-11T03:58:44.654Z,9.18
2023-04-11T04:01:50.132Z,8.23
2023-04-11T04:04:58.629Z,8.93
2023-04-11T04:08:08.061Z,8.65
2023-04-11T04:11:22.219Z,9.10
2023-04-11T04:14:28.344Z,9.13
2023-04-11T04:17:34.402Z,8.98
2023-04-11T04:20:43.707Z,8.93
2023-04-11T04:23:49.154Z,9.27
2023-04-11T04:27:04.254Z,8.60
2023-04-11T04:30:29.728Z,9.68
2023-04-11T04:33:46.503Z,9.32
2023-04-11T04:37:02.937Z,9.20
2023-04-11T04:40:21.050Z,9.63
2023-04-11T04:43:34.358Z,10.00
2023-04-11T04:46:57.645Z,8.60
2023-04-11T04:50:06.871Z,8.57
2023-04-11T04:53:12.797Z,8.73
2023-04-11T04:56:24.213Z,9.63
2023-04-11T04:59:32.177Z,9.80
2023-04-11T05:02:48.385Z,9.32
2023-04-11T05:05:54.680Z,10.75
2023-04-11T05:09:01.809Z,9.73
2023-04-11T05:12:08.002Z,9.65
2023-04-11T05:15:16.332Z,9.90
2023-04-11T05:18:21.754Z,9.15
2023-04-11T05:21:27.231Z,10.38
2023-04-11T05:24:33.680Z,9.27
2023-04-11T05:27:40.179Z,9.93
2023-04-11T05:30:46.524Z,9.60
2023-04-11T05:33:52.996Z,10.00
2023-04-11T05:36:59.937Z,8.88
2023-04-11T05:40:08.791Z,9.38
2023-04-11T05:43:15.253Z,10.43
2023-04-11T05:46:21.713Z,10.13
2023-04-11T05:49:27.476Z,10.23
2023-04-11T05:52:32.771Z,9.77
2023-04-11T05:55:38.413Z,10.15
2023-04-11T05:58:44.540Z,10.18
2023-04-11T06:01:51.289Z,11.50
2023-04-11T06:04:56.810Z,10.63
2023-04-11T06:08:03.426Z,11.82
2023-04-11T06:11:09.799Z,11.73
2023-04-11T06:14:15.843Z,11.15
2023-04-11T06:17:21.156Z,11.30
2023-04-11T06:20:26.590Z,15.75
2023-04-11T06:23:31.653Z,14.25
2023-04-11T06:26:37.598Z,10.77
2023-04-11T06:29:46.554Z,9.10
2023-04-11T06:32:52.699Z,10.80
2023-04-11T06:35:58.972Z,9.05
2023-04-11T06:39:05.889Z,10.25
2023-04-11T06:42:11.659Z,9.45
2023-04-11T06:45:21.883Z,9.13
2023-04-11T06:48:27.960Z,8.43
2023-04-11T06:51:36.968Z,8.68
2023-04-11T06:54:42.595Z,8.27
2023-04-11T06:57:47.680Z,7.97
2023-04-11T07:00:53.264Z,8.30
2023-04-11T07:03:59.432Z,8.73
2023-04-11T07:07:05.970Z,8.38
2023-04-11T07:10:11.324Z,8.05
2023-04-11T07:13:17.555Z,8.20
2023-04-11T07:16:23.355Z,8.13
2023-04-11T07:19:28.851Z,9.98
2023-04-11T07:22:33.947Z,7.95
2023-04-11T07:25:39.741Z,8.73
2023-04-11T07:28:45.299Z,8.40
2023-04-11T07:31:51.712Z,9.30
2023-04-11T07:34:57.031Z,8.07
2023-04-11T07:38:02.522Z,9.10
2023-04-11T07:41:08.738Z,8.38
2023-04-11T07:44:13.792Z,7.60
2023-04-11T07:47:18.917Z,7.25
2023-04-11T07:50:24.395Z,5.22
2023-04-11T07:53:31.633Z,5.80
2023-04-11T07:56:37.463Z,5.30
2023-04-11T07:59:43.580Z,5.90
2023-04-11T08:02:50.038Z,5.55
2023-04-11T08:05:56.360Z,5.50
2023-04-11T08:09:01.696Z,5.57
2023-04-11T08:12:07.007Z,5.63
2023-04-11T08:15:12.626Z,5.28
2023-04-11T08:18:21.746Z,5.15
2023-04-11T08:21:26.767Z,5.30
2023-04-11T08:24:32.259Z,5.25
2023-04-11T08:27:38.917Z,5.05
2023-04-11T08:30:44.762Z,5.18
2023-04-11T08:33:50.962Z,4.90
2023-04-11T08:36:56.396Z,5.15
2023-04-11T08:40:01.985Z,5.35
2023-04-11T08:43:12.632Z,4.40
2023-04-11T08:46:18.715Z,5.10
2023-04-11T08:49:24.117Z,5.15
2023-04-11T08:52:31.335Z,4.75
2023-04-11T08:55:46.183Z,5.20
2023-04-11T08:58:51.761Z,4.53
2023-04-11T09:02:09.849Z,4.03
2023-04-11T09:05:36.408Z,4.25
2023-04-11T09:08:41.738Z,5.38
2023-04-11T09:11:54.825Z,4.38
2023-04-11T09:15:23.401Z,4.95
2023-04-11T09:18:42.532Z,4.65
2023-04-11T09:21:50.855Z,5.43
2023-04-11T09:25:03.836Z,4.95
2023-04-11T09:28:11.039Z,4.50
2023-04-11T09:31:16.483Z,5.63
2023-04-11T09:34:27.797Z,5.47
2023-04-11T09:38:04.054Z,5.05
2023-04-11T09:41:09.544Z,4.88
2023-04-11T09:44:14.901Z,5.50
2023-04-11T09:47:20.746Z,5.50
2023-04-11T09:50:27.973Z,5.53
2023-04-11T09:53:37.694Z,6.03
2023-04-11T09:56:43.482Z,5.50
2023-04-11T09:59:50.154Z,5.03
2023-04-11T10:02:55.981Z,5.35
2023-04-11T10:06:12.771Z,5.30
2023-04-11T10:09:19.655Z,5.45
2023-04-11T10:12:32.337Z,5.00
2023-04-11T10:15:37.957Z,5.22
2023-04-11T10:18:52.533Z,6.40
2023-04-11T10:21:57.931Z,6.63
2023-04-11T10:25:25.536Z,6.32
2023-04-11T10:28:40.857Z,6.57
2023-04-11T10:32:15.800Z,8.18
2023-04-11T10:35:22.825Z,7.90
2023-04-11T10:38:49.192Z,7.22
2023-04-11T10:41:54.990Z,7.32
2023-04-11T10:45:26.845Z,11.57
2023-04-11T10:48:32.009Z,6.95
2023-04-11T10:51:37.149Z,7.40
2023-04-11T10:54:42.563Z,7.20
2023-04-11T10:58:08.577Z,7.20
2023-04-11T11:01:26.317Z,7.72
2023-04-11T11:04:41.451Z,7.55
2023-04-11T11:07:48.394Z,7.40
2023-04-11T11:10:54.675Z,8.80
2023-04-11T11:14:01.607Z,7.82
2023-04-11T11:17:09.083Z,8.40
2023-04-11T11:20:20.472Z,10.60
2023-04-11T11:23:27.461Z,7.75
2023-04-11T11:26:40.917Z,7.57
2023-04-11T11:29:46.274Z,8.35
2023-04-11T11:32:51.695Z,8.00
2023-04-11T11:36:00.741Z,8.00
2023-04-11T11:39:06.994Z,8.07
2023-04-11T11:42:13.420Z,7.32
2023-04-11T11:45:23.568Z,8.43
2023-04-11T11:48:28.968Z,8.70
2023-04-11T11:51:42.819Z,7.88
2023-04-11T11:54:48.424Z,6.82
2023-04-11T11:57:54.217Z,7.18
2023-04-11T12:00:59.553Z,8.38
2023-04-11T12:04:11.689Z,8.07
2023-04-11T12:07:22.130Z,8.75
2023-04-11T12:10:46.970Z,9.00
2023-04-11T12:13:53.568Z,8.30
2023-04-11T12:16:59.344Z,7.88
2023-04-11T12:20:08.882Z,7.78
2023-04-11T12:23:14.080Z,7.38
2023-04-11T12:26:21.242Z,7.82
2023-04-11T12:29:26.858Z,7.43
2023-04-11T12:32:35.796Z,7.07
2023-04-11T12:35:41.615Z,7.63
2023-04-11T12:38:47.206Z,8.15
2023-04-11T12:41:52.696Z,7.45
2023-04-11T12:44:57.931Z,7.70
2023-04-11T12:48:03.056Z,7.90
2023-04-11T12:51:08.494Z,6.95
2023-04-11T12:54:13.824Z,7.13
2023-04-11T12:57:19.571Z,7.60
2023-04-11T13:00:25.628Z,8.05
2023-04-11T13:03:31.458Z,7.78
2023-04-11T13:06:37.752Z,7.05
2023-04-11T13:09:42.973Z,8.40
2023-04-11T13:12:48.800Z,8.75
2023-04-11T13:15:54.576Z,7.57
2023-04-11T13:19:00.161Z,7.97
2023-04-11T13:22:05.571Z,7.90
2023-04-11T13:25:12.578Z,8.57
2023-04-11T13:28:18.473Z,7.90
2023-04-11T13:31:27.980Z,7.30
2023-04-11T13:34:34.415Z,8.60
2023-04-11T13:37:39.769Z,7.15
2023-04-11T13:40:45.192Z,7.28
2023-04-11T13:43:52.489Z,8.07
2023-04-11T13:46:57.662Z,8.50
2023-04-11T13:50:03.412Z,8.15
2023-04-11T13:53:09.951Z,8.48
2023-04-11T13:56:15.548Z,8.55
2023-04-11T13:59:20.977Z,9.50
2023-04-11T14:02:26.432Z,10.35
2023-04-11T14:05:35.797Z,9.23
2023-04-11T14:08:41.572Z,9.85
2023-04-11T14:11:47.102Z,9.02
2023-04-11T14:14:52.863Z,7.68
2023-04-11T14:17:58.172Z,8.50
2023-04-11T14:21:06.073Z,8.13
2023-04-11T14:24:11.679Z,7.90
2023-04-11T14:27:17.572Z,7.38
2023-04-11T14:30:23.029Z,7.35
2023-04-11T14:33:28.998Z,8.45
2023-04-11T14:36:34.437Z,7.72
2023-04-11T14:39:40.186Z,7.32
2023-04-11T14:42:45.417Z,6.90
2023-04-11T14:45:56.028Z,6.70
2023-04-11T14:49:02.268Z,7.07
2023-04-11T14:52:08.041Z,7.55
2023-04-11T14:55:13.365Z,7.18
2023-04-11T14:58:18.574Z,7.15
2023-04-11T15:01:24.543Z,6.30
2023-04-11T15:04:30.174Z,6.20
2023-04-11T15:07:37.004Z,6.85
2023-04-11T15:10:42.580Z,6.35
2023-04-11T15:13:48.543Z,6.90
2023-04-11T15:16:54.064Z,6.40
2023-04-11T15:19:59.390Z,5.82
2023-04-11T15:23:04.542Z,5.60
2023-04-11T15:26:09.940Z,5.30
2023-04-11T15:29:18.236Z,6.15
2023-04-11T15:32:24.563Z,5.97
2023-04-11T15:35:29.913Z,6.15
2023-04-11T15:38:36.806Z,5.22
2023-04-11T15:41:42.046Z,5.75
2023-04-11T15:44:50.740Z,5.45
2023-04-11T15:47:56.663Z,5.40
2023-04-11T15:51:10.055Z,5.60
2023-04-11T15:54:15.668Z,4.95
2023-04-11T15:57:21.459Z,4.88
2023-04-11T16:00:27.991Z,4.68
2023-04-11T16:03:34.416Z,4.00
2023-04-11T16:06:40.975Z,4.75
2023-04-11T16:09:47.125Z,4.45
2023-04-11T16:12:52.894Z,4.72
2023-04-11T16:15:59.417Z,4.78
2023-04-11T16:19:04.753Z,4.65
2023-04-11T16:22:10.189Z,4.22
2023-04-11T16:25:19.072Z,4.15
2023-04-11T16:28:24.447Z,5.20
2023-04-11T16:31:31.671Z,5.30
2023-04-11T16:34:37.203Z,5.30
2023-04-11T16:37:42.861Z,5.40
2023-04-11T16:40:48.159Z,5.80
2023-04-11T16:43:53.789Z,4.93
2023-04-11T16:46:59.550Z,5.40
2023-04-11T16:50:06.056Z,5.20
2023-04-11T16:53:11.303Z,6.25
2023-04-11T16:56:20.283Z,5.55
2023-04-11T16:59:25.629Z,5.75
2023-04-11T17:02:31.246Z,6.40
2023-04-11T17:05:36.707Z,5.88
2023-04-11T17:08:43.332Z,5.90
2023-04-11T17:11:49.263Z,6.18
2023-04-11T17:14:56.178Z,5.95
2023-04-11T17:18:01.978Z,6.10
2023-04-11T17:21:07.651Z,6.28
2023-04-11T17:24:13.094Z,6.82
2023-04-11T17:27:18.555Z,6.93
2023-04-11T17:30:24.207Z,6.57
2023-04-11T17:33:29.744Z,7.07
2023-04-11T17:36:42.638Z,6.78
2023-04-11T17:39:49.986Z,6.82
2023-04-11T17:42:57.393Z,6.45
2023-04-11T17:46:02.991Z,6.38
2023-04-11T17:49:08.355Z,5.95
2023-04-11T17:52:13.628Z,5.75
2023-04-11T17:55:20.069Z,5.95
2023-04-11T17:58:25.630Z,6.20
2023-04-11T18:01:32.939Z,6.07
2023-04-11T18:04:38.646Z,6.13
2023-04-11T18:07:45.605Z,5.95
2023-04-11T18:10:51.873Z,6.63
2023-04-11T18:13:57.504Z,7.50
2023-04-11T18:17:03.148Z,6.55
2023-04-11T18:20:09.441Z,7.38
2023-04-11T18:23:14.839Z,6.43
2023-04-11T18:26:20.289Z,7.28
2023-04-11T18:29:26.233Z,6.43
2023-04-11T18:32:39.519Z,6.68
2023-04-11T18:35:47.849Z,6.03
2023-04-11T18:38:53.588Z,7.80
2023-04-11T18:41:59.197Z,7.13
2023-04-11T18:45:06.055Z,7.78
2023-04-11T18:48:12.087Z,8.02
2023-04-11T18:51:17.504Z,8.05
2023-04-11T18:54:23.654Z,8.48
2023-04-11T18:57:34.750Z,8.68
2023-04-11T19:00:42.996Z,8.90
2023-04-11T19:03:50.297Z,8.68
2023-04-11T19:06:56.908Z,9.23
2023-04-11T19:10:02.726Z,8.63
2023-04-11T19:13:08.390Z,8.38
2023-04-11T19:16:14.743Z,10.05
2023-04-11T19:19:20.633Z,10.80
2023-04-11T19:22:26.389Z,10.55
2023-04-11T19:25:33.066Z,9.73
2023-04-11T19:28:39.217Z,9.57
2023-04-11T19:31:45.349Z,10.73
2023-04-11T19:34:50.867Z,10.02
2023-04-11T19:37:57.465Z,9.88
2023-04-11T19:41:18.313Z,10.32
2023-04-11T19:44:25.124Z,8.85
2023-04-11T19:47:32.810Z,8.40
2023-04-11T19:50:39.172Z,7.80
2023-04-11T19:53:44.877Z,7.05
2023-04-11T19:56:53.695Z,9.88
2023-04-11T19:59:59.577Z,7.38
2023-04-11T20:03:07.842Z,7.35
2023-04-11T20:06:14.305Z,7.22
2023-04-11T20:09:20.176Z,6.90
2023-04-11T20:12:25.699Z,6.38
2023-04-11T20:15:32.006Z,7.90
2023-04-11T20:18:37.285Z,7.50
2023-04-11T20:21:42.715Z,8.60
2023-04-11T20:24:51.086Z,7.30
2023-04-11T20:27:56.768Z,7.20
2023-04-11T20:31:04.872Z,6.60
2023-04-11T20:34:11.407Z,8.05
2023-04-11T20:37:18.797Z,7.32
2023-04-11T20:40:26.999Z,7.43
2023-04-11T20:43:32.422Z,7.90
2023-04-11T20:46:40.085Z,8.32
2023-04-11T20:49:49.985Z,7.53
2023-04-11T20:52:55.261Z,8.10
2023-04-11T20:56:00.822Z,9.32
2023-04-11T20:59:07.568Z,8.60
2023-04-11T21:02:13.154Z,9.27
2023-04-11T21:05:25.338Z,9.48
2023-04-11T21:08:30.647Z,10.38
2023-04-11T21:11:36.526Z,9.90
2023-04-11T21:14:42.264Z,9.93
2023-04-11T21:17:47.770Z,9.38
2023-04-11T21:20:53.073Z,10.02
2023-04-11T21:23:58.615Z,9.75
2023-04-11T21:27:04.454Z,10.65
2023-04-11T21:30:10.897Z,9.65
2023-04-11T21:33:16.416Z,10.60
2023-04-11T21:36:21.719Z,10.57
2023-04-11T21:39:27.141Z,9.90
2023-04-11T21:42:32.400Z,10.43
2023-04-11T21:45:37.797Z,9.57
2023-04-11T21:48:43.293Z,9.93
2023-04-11T21:51:48.763Z,9.60
2023-04-11T21:54:54.053Z,9.25
2023-04-11T21:57:59.881Z,9.02
2023-04-11T22:01:05.934Z,9.25
2023-04-11T22:04:11.701Z,8.95
2023-04-11T22:07:18.170Z,8.15
2023-04-11T22:10:32.460Z,7.78
2023-04-11T22:13:46.949Z,8.00
2023-04-11T22:16:52.971Z,7.82
2023-04-11T22:20:01.157Z,7.38
2023-04-11T22:23:14.065Z,7.95
2023-04-11T22:26:26.646Z,7.43
2023-04-11T22:29:34.543Z,7.40
2023-04-11T22:32:40.155Z,7.80
2023-04-11T22:35:47.853Z,8.10
2023-04-11T22:38:53.844Z,8.50
2023-04-11T22:41:59.645Z,7.38
2023-04-11T22:45:06.333Z,7.75
2023-04-11T22:48:14.277Z,9.07
2023-04-11T22:51:22.154Z,9.48
2023-04-11T22:54:28.601Z,8.95
2023-04-11T22:57:35.206Z,9.77
2023-04-11T23:00:41.760Z,8.75
2023-04-11T23:03:47.639Z,8.98
2023-04-11T23:06:54.200Z,8.02
2023-04-11T23:10:06.549Z,8.75
2023-04-11T23:13:12.828Z,8.25
2023-04-11T23:16:18.499Z,7.90
2023-04-11T23:19:23.978Z,7.80
2023-04-11T23:22:29.306Z,7.47
2023-04-11T23:25:40.138Z,7.60
2023-04-11T23:28:47.158Z,6.50
2023-04-11T23:31:52.741Z,6.50
2023-04-11T23:34:58.186Z,5.70
2023-04-11T23:38:03.739Z,8.15
2023-04-11T23:41:08.973Z,6.80
2023-04-11T23:44:14.608Z,6.53
2023-04-11T23:47:20.636Z,7.40
2023-04-11T23:50:26.113Z,7.07
2023-04-11T23:53:31.888Z,6.95
2023-04-11T23:56:37.054Z,7.32
2023-04-11T23:59:42.285Z,7.05
